sensor_id;sensor_type;location;lat;lon;timestamp;pressure;altitude;pressure_sealevel;temperature;humidity
15914;BME280;8055;51.930;8.840;2022-12-20T00:00:11;99542.13;;;9.26;100.00
15914;BME280;8055;51.930;8.840;2022-12-20T00:02:36;99538.84;;;9.47;100.00
15914;BME280;8055;51.930;8.840;2022-12-20T00:05:02;99544.41;;;9.54;100.00
15914;BME280;8055;51.930;8.840;2022-12-20T00:07:27;99530.22;;;9.43;100.00
15914;BME280;8055;51.930;8.840;2022-12-20T00:09:52;99531.88;;;9.53;100.00
15914;BME280;8055;51.930;8.840;2022-12-20T00:12:18;99530.25;;;9.35;100.00
15914;BME280;8055;51.930;8.840;2022-12-20T00:14:43;99535.16;;;9.23;100.00
15914;BME280;8055;51.930;8.840;2022-12-20T00:17:08;99537.19;;;9.30;100.00
15914;BME280;8055;51.930;8.840;2022-12-20T00:19:34;99539.91;;;9.30;100.00
15914;BME280;8055;51.930;8.840;2022-12-20T00:21:59;99538.38;;;9.27;100.00
15914;BME280;8055;51.930;8.840;2022-12-20T00:24:24;99530.09;;;9.29;100.00
15914;BME280;8055;51.930;8.840;2022-12-20T00:26:50;99533.66;;;9.29;100.00
15914;BME280;8055;51.930;8.840;2022-12-20T00:29:15;99532.97;;;9.27;100.00
15914;BME280;8055;51.930;8.840;2022-12-20T00:31:40;99530.09;;;9.20;100.00
15914;BME280;8055;51.930;8.840;2022-12-20T00:34:06;99532.47;;;9.23;100.00
15914;BME280;8055;51.930;8.840;2022-12-20T00:36:32;99539.59;;;9.16;100.00
15914;BME280;8055;51.930;8.840;2022-12-20T00:38:58;99538.94;;;9.06;100.00
15914;BME280;8055;51.930;8.840;2022-12-20T00:41:26;99532.16;;;9.18;100.00
15914;BME280;8055;51.930;8.840;2022-12-20T00:43:52;99528.50;;;9.42;100.00
15914;BME280;8055;51.930;8.840;2022-12-20T00:46:19;99522.47;;;9.32;100.00
15914;BME280;8055;51.930;8.840;2022-12-20T00:48:45;99519.94;;;9.22;100.00
15914;BME280;8055;51.930;8.840;2022-12-20T00:51:16;99517.03;;;9.24;100.00
15914;BME280;8055;51.930;8.840;2022-12-20T00:53:42;99518.06;;;9.31;100.00
15914;BME280;8055;51.930;8.840;2022-12-20T00:56:08;99508.41;;;9.29;100.00
15914;BME280;8055;51.930;8.840;2022-12-20T00:58:36;99513.50;;;9.32;100.00
15914;BME280;8055;51.930;8.840;2022-12-20T01:01:02;99503.13;;;9.35;100.00
15914;BME280;8055;51.930;8.840;2022-12-20T01:03:28;99505.72;;;9.29;100.00
15914;BME280;8055;51.930;8.840;2022-12-20T01:05:56;99504.31;;;9.33;100.00
15914;BME280;8055;51.930;8.840;2022-12-20T01:08:23;99493.69;;;9.31;100.00
15914;BME280;8055;51.930;8.840;2022-12-20T01:11:13;99495.69;;;9.37;100.00
15914;BME280;8055;51.930;8.840;2022-12-20T01:13:40;99497.38;;;9.38;100.00
15914;BME280;8055;51.930;8.840;2022-12-20T01:16:09;99500.25;;;9.37;100.00
15914;BME280;8055;51.930;8.840;2022-12-20T01:18:35;99494.47;;;9.40;100.00
15914;BME280;8055;51.930;8.840;2022-12-20T01:21:02;99486.19;;;9.41;100.00
15914;BME280;8055;51.930;8.840;2022-12-20T01:23:27;99490.56;;;9.50;100.00
15914;BME280;8055;51.930;8.840;2022-12-20T01:25:53;99482.56;;;9.57;100.00
15914;BME280;8055;51.930;8.840;2022-12-20T01:28:18;99480.34;;;9.61;100.00
15914;BME280;8055;51.930;8.840;2022-12-20T01:30:44;99477.09;;;9.65;100.00
15914;BME280;8055;51.930;8.840;2022-12-20T01:33:09;99490.34;;;9.60;100.00
15914;BME280;8055;51.930;8.840;2022-12-20T01:35:35;99478.16;;;9.56;100.00
15914;BME280;8055;51.930;8.840;2022-12-20T01:38:00;99479.81;;;9.65;100.00
15914;BME280;8055;51.930;8.840;2022-12-20T01:40:26;99465.75;;;9.62;100.00
15914;BME280;8055;51.930;8.840;2022-12-20T01:42:51;99479.50;;;9.52;100.00
15914;BME280;8055;51.930;8.840;2022-12-20T01:45:24;99478.16;;;9.56;100.00
15914;BME280;8055;51.930;8.840;2022-12-20T01:47:51;99487.59;;;9.68;100.00
15914;BME280;8055;51.930;8.840;2022-12-20T01:50:17;99478.09;;;9.72;100.00
15914;BME280;8055;51.930;8.840;2022-12-20T01:52:44;99478.75;;;9.75;100.00
15914;BME280;8055;51.930;8.840;2022-12-20T01:58:02;99476.69;;;9.77;100.00
15914;BME280;8055;51.930;8.840;2022-12-20T02:00:29;99489.44;;;9.68;100.00
15914;BME280;8055;51.930;8.840;2022-12-20T02:02:57;99490.47;;;9.67;100.00
15914;BME280;8055;51.930;8.840;2022-12-20T02:05:24;99487.25;;;9.71;100.00
15914;BME280;8055;51.930;8.840;2022-12-20T02:07:53;99498.75;;;9.73;100.00
15914;BME280;8055;51.930;8.840;2022-12-20T02:10:22;99506.25;;;9.63;100.00
15914;BME280;8055;51.930;8.840;2022-12-20T02:12:51;99494.00;;;9.76;100.00
15914;BME280;8055;51.930;8.840;2022-12-20T02:32:22;99454.59;;;9.88;100.00
15914;BME280;8055;51.930;8.840;2022-12-20T02:34:49;99464.47;;;9.81;100.00
15914;BME280;8055;51.930;8.840;2022-12-20T02:37:14;99465.13;;;9.83;100.00
15914;BME280;8055;51.930;8.840;2022-12-20T02:39:41;99468.44;;;9.70;100.00
15914;BME280;8055;51.930;8.840;2022-12-20T02:42:12;99458.78;;;9.67;100.00
15914;BME280;8055;51.930;8.840;2022-12-20T02:44:46;99463.84;;;9.70;100.00
15914;BME280;8055;51.930;8.840;2022-12-20T02:47:35;99449.09;;;9.73;100.00
15914;BME280;8055;51.930;8.840;2022-12-20T02:50:06;99448.25;;;9.72;100.00
15914;BME280;8055;51.930;8.840;2022-12-20T02:52:32;99454.34;;;9.75;100.00
15914;BME280;8055;51.930;8.840;2022-12-20T02:54:58;99456.06;;;9.67;100.00
15914;BME280;8055;51.930;8.840;2022-12-20T02:57:28;99444.41;;;9.59;100.00
15914;BME280;8055;51.930;8.840;2022-12-20T03:02:34;99438.22;;;9.50;100.00
15914;BME280;8055;51.930;8.840;2022-12-20T03:05:22;99433.16;;;9.39;100.00
15914;BME280;8055;51.930;8.840;2022-12-20T03:07:48;99435.88;;;9.39;100.00
15914;BME280;8055;51.930;8.840;2022-12-20T03:10:15;99438.94;;;9.36;100.00
15914;BME280;8055;51.930;8.840;2022-12-20T03:12:41;99432.47;;;9.37;100.00
15914;BME280;8055;51.930;8.840;2022-12-20T03:15:07;99426.09;;;9.30;100.00
15914;BME280;8055;51.930;8.840;2022-12-20T03:17:33;99408.84;;;9.22;100.00
15914;BME280;8055;51.930;8.840;2022-12-20T03:19:59;99420.88;;;9.28;100.00
15914;BME280;8055;51.930;8.840;2022-12-20T03:22:24;99420.72;;;9.21;100.00
15914;BME280;8055;51.930;8.840;2022-12-20T03:24:50;99424.44;;;9.20;100.00
15914;BME280;8055;51.930;8.840;2022-12-20T03:27:15;99427.25;;;9.35;100.00
15914;BME280;8055;51.930;8.840;2022-12-20T03:29:41;99429.03;;;9.51;100.00
15914;BME280;8055;51.930;8.840;2022-12-20T03:32:06;99418.22;;;9.43;100.00
15914;BME280;8055;51.930;8.840;2022-12-20T03:34:31;99418.59;;;9.40;100.00
15914;BME280;8055;51.930;8.840;2022-12-20T03:36:57;99420.66;;;9.38;100.00
15914;BME280;8055;51.930;8.840;2022-12-20T03:39:22;99413.03;;;9.33;100.00
15914;BME280;8055;51.930;8.840;2022-12-20T03:41:48;99427.75;;;9.39;100.00
15914;BME280;8055;51.930;8.840;2022-12-20T03:44:13;99429.28;;;9.33;100.00
15914;BME280;8055;51.930;8.840;2022-12-20T03:46:38;99429.34;;;9.25;100.00
15914;BME280;8055;51.930;8.840;2022-12-20T03:49:04;99429.56;;;9.15;100.00
15914;BME280;8055;51.930;8.840;2022-12-20T03:51:29;99431.94;;;9.10;100.00
15914;BME280;8055;51.930;8.840;2022-12-20T03:53:55;99435.81;;;9.08;100.00
15914;BME280;8055;51.930;8.840;2022-12-20T03:56:20;99437.06;;;8.97;100.00
15914;BME280;8055;51.930;8.840;2022-12-20T03:58:45;99433.66;;;8.87;100.00
15914;BME280;8055;51.930;8.840;2022-12-20T04:01:22;99410.38;;;8.69;100.00
15914;BME280;8055;51.930;8.840;2022-12-20T04:03:48;99430.19;;;8.53;100.00
15914;BME280;8055;51.930;8.840;2022-12-20T04:06:14;99446.09;;;8.40;100.00
15914;BME280;8055;51.930;8.840;2022-12-20T04:08:40;99444.88;;;8.26;100.00
15914;BME280;8055;51.930;8.840;2022-12-20T04:11:06;99452.66;;;8.21;100.00
15914;BME280;8055;51.930;8.840;2022-12-20T04:13:50;99465.84;;;8.16;100.00
15914;BME280;8055;51.930;8.840;2022-12-20T04:16:18;99456.03;;;8.15;100.00
15914;BME280;8055;51.930;8.840;2022-12-20T04:18:44;99458.22;;;8.20;100.00
15914;BME280;8055;51.930;8.840;2022-12-20T04:21:10;99455.19;;;8.23;100.00
15914;BME280;8055;51.930;8.840;2022-12-20T04:23:37;99465.53;;;8.27;100.00
15914;BME280;8055;51.930;8.840;2022-12-20T04:26:05;99454.00;;;8.33;100.00
15914;BME280;8055;51.930;8.840;2022-12-20T04:28:31;99454.72;;;8.44;100.00
15914;BME280;8055;51.930;8.840;2022-12-20T04:30:57;99444.06;;;8.50;100.00
15914;BME280;8055;51.930;8.840;2022-12-20T04:33:24;99448.09;;;8.54;100.00
15914;BME280;8055;51.930;8.840;2022-12-20T04:35:49;99452.50;;;8.64;100.00
15914;BME280;8055;51.930;8.840;2022-12-20T04:38:16;99441.66;;;8.72;100.00
15914;BME280;8055;51.930;8.840;2022-12-20T04:40:41;99442.47;;;8.80;100.00
15914;BME280;8055;51.930;8.840;2022-12-20T04:43:07;99443.84;;;8.76;100.00
15914;BME280;8055;51.930;8.840;2022-12-20T04:45:32;99428.44;;;8.77;100.00
15914;BME280;8055;51.930;8.840;2022-12-20T04:47:58;99427.78;;;8.75;100.00
15914;BME280;8055;51.930;8.840;2022-12-20T04:50:24;99430.66;;;8.73;100.00
15914;BME280;8055;51.930;8.840;2022-12-20T04:52:49;99424.25;;;8.66;100.00
15914;BME280;8055;51.930;8.840;2022-12-20T04:55:37;99431.69;;;8.64;100.00
15914;BME280;8055;51.930;8.840;2022-12-20T04:58:03;99428.13;;;8.64;100.00
15914;BME280;8055;51.930;8.840;2022-12-20T05:00:28;99413.75;;;8.55;100.00
15914;BME280;8055;51.930;8.840;2022-12-20T05:02:53;99415.78;;;8.61;100.00
15914;BME280;8055;51.930;8.840;2022-12-20T05:05:19;99409.03;;;8.65;100.00
15914;BME280;8055;51.930;8.840;2022-12-20T05:07:44;99420.19;;;8.62;100.00
15914;BME280;8055;51.930;8.840;2022-12-20T05:10:10;99416.81;;;8.60;100.00
15914;BME280;8055;51.930;8.840;2022-12-20T05:12:35;99408.00;;;8.58;100.00
15914;BME280;8055;51.930;8.840;2022-12-20T05:15:01;99413.75;;;8.55;100.00
15914;BME280;8055;51.930;8.840;2022-12-20T05:17:26;99423.75;;;8.54;100.00
15914;BME280;8055;51.930;8.840;2022-12-20T05:19:51;99428.81;;;8.57;100.00
15914;BME280;8055;51.930;8.840;2022-12-20T05:22:17;99437.28;;;8.54;100.00
15914;BME280;8055;51.930;8.840;2022-12-20T05:25:00;99430.88;;;8.55;100.00
15914;BME280;8055;51.930;8.840;2022-12-20T05:27:44;99421.72;;;8.48;100.00
15914;BME280;8055;51.930;8.840;2022-12-20T05:30:10;99421.69;;;8.65;100.00
15914;BME280;8055;51.930;8.840;2022-12-20T05:32:35;99417.50;;;8.62;100.00
15914;BME280;8055;51.930;8.840;2022-12-20T05:35:01;99409.03;;;8.65;100.00
15914;BME280;8055;51.930;8.840;2022-12-20T05:37:26;99406.66;;;8.62;100.00
15914;BME280;8055;51.930;8.840;2022-12-20T05:39:51;99415.28;;;8.57;100.00
15914;BME280;8055;51.930;8.840;2022-12-20T05:42:17;99403.09;;;8.62;100.00
15914;BME280;8055;51.930;8.840;2022-12-20T05:44:42;99413.75;;;8.55;100.00
15914;BME280;8055;51.930;8.840;2022-12-20T05:47:07;99411.94;;;8.47;100.00
15914;BME280;8055;51.930;8.840;2022-12-20T05:49:33;99416.50;;;8.47;100.00
15914;BME280;8055;51.930;8.840;2022-12-20T05:52:00;99408.03;;;8.50;100.00
15914;BME280;8055;51.930;8.840;2022-12-20T05:54:25;99418.03;;;8.49;100.00
15914;BME280;8055;51.930;8.840;2022-12-20T05:56:51;99413.44;;;8.50;100.00
15914;BME280;8055;51.930;8.840;2022-12-20T05:59:16;99421.53;;;8.58;100.00
15914;BME280;8055;51.930;8.840;2022-12-20T06:01:42;99414.44;;;8.49;100.00
15914;BME280;8055;51.930;8.840;2022-12-20T06:04:08;99408.53;;;8.45;100.00
15914;BME280;8055;51.930;8.840;2022-12-20T06:06:33;99413.09;;;8.53;100.00
15914;BME280;8055;51.930;8.840;2022-12-20T06:08:59;99399.91;;;8.42;100.00
15914;BME280;8055;51.930;8.840;2022-12-20T06:11:24;99386.69;;;8.55;100.00
15914;BME280;8055;51.930;8.840;2022-12-20T06:13:49;99388.41;;;8.56;100.00
15914;BME280;8055;51.930;8.840;2022-12-20T06:16:15;99385.16;;;8.61;100.00
15914;BME280;8055;51.930;8.840;2022-12-20T06:18:40;99397.88;;;8.52;100.00
15914;BME280;8055;51.930;8.840;2022-12-20T06:21:06;99398.22;;;8.49;100.00
15914;BME280;8055;51.930;8.840;2022-12-20T06:23:31;99384.69;;;8.49;100.00
15914;BME280;8055;51.930;8.840;2022-12-20T06:25:58;99392.97;;;8.55;100.00
15914;BME280;8055;51.930;8.840;2022-12-20T06:28:23;99398.41;;;8.47;100.00
15914;BME280;8055;51.930;8.840;2022-12-20T06:30:56;99392.44;;;8.60;100.00
15914;BME280;8055;51.930;8.840;2022-12-20T06:33:22;99388.25;;;8.49;100.00
15914;BME280;8055;51.930;8.840;2022-12-20T06:35:51;99397.88;;;8.52;100.00
15914;BME280;8055;51.930;8.840;2022-12-20T06:38:16;99391.47;;;8.45;100.00
15914;BME280;8055;51.930;8.840;2022-12-20T06:40:42;99380.47;;;8.46;100.00
15914;BME280;8055;51.930;8.840;2022-12-20T06:43:08;99376.75;;;8.47;100.00
15914;BME280;8055;51.930;8.840;2022-12-20T06:45:33;99381.97;;;8.49;100.00
15914;BME280;8055;51.930;8.840;2022-12-20T06:47:58;99388.06;;;8.43;100.00
15914;BME280;8055;51.930;8.840;2022-12-20T06:50:24;99391.47;;;8.45;100.00
15914;BME280;8055;51.930;8.840;2022-12-20T06:52:49;99392.28;;;8.45;100.00
15914;BME280;8055;51.930;8.840;2022-12-20T06:55:15;99389.94;;;8.42;100.00
15914;BME280;8055;51.930;8.840;2022-12-20T06:57:41;99388.41;;;8.40;100.00
15914;BME280;8055;51.930;8.840;2022-12-20T07:00:07;99383.69;;;8.42;100.00
15914;BME280;8055;51.930;8.840;2022-12-20T07:02:34;99371.81;;;8.43;100.00
15914;BME280;8055;51.930;8.840;2022-12-20T07:05:01;99367.44;;;8.50;100.00
15914;BME280;8055;51.930;8.840;2022-12-20T07:07:26;99377.59;;;8.48;100.00
15914;BME280;8055;51.930;8.840;2022-12-20T07:09:52;99380.97;;;8.50;100.00
15914;BME280;8055;51.930;8.840;2022-12-20T07:12:17;99384.00;;;8.55;100.00
15914;BME280;8055;51.930;8.840;2022-12-20T07:14:42;99370.78;;;8.60;100.00
15914;BME280;8055;51.930;8.840;2022-12-20T07:17:08;99367.56;;;8.65;100.00
15914;BME280;8055;51.930;8.840;2022-12-20T07:19:34;99372.81;;;8.66;100.00
15914;BME280;8055;51.930;8.840;2022-12-20T07:22:01;99379.25;;;8.65;100.00
15914;BME280;8055;51.930;8.840;2022-12-20T07:24:26;99374.00;;;8.72;100.00
15914;BME280;8055;51.930;8.840;2022-12-20T07:26:52;99379.06;;;8.67;100.00
15914;BME280;8055;51.930;8.840;2022-12-20T07:29:17;99381.78;;;8.67;100.00
15914;BME280;8055;51.930;8.840;2022-12-20T07:31:43;99382.31;;;8.62;100.00
15914;BME280;8055;51.930;8.840;2022-12-20T07:34:08;99382.81;;;8.66;100.00
15914;BME280;8055;51.930;8.840;2022-12-20T07:36:33;99384.13;;;8.70;100.00
15914;BME280;8055;51.930;8.840;2022-12-20T07:38:59;99388.19;;;8.74;100.00
15914;BME280;8055;51.930;8.840;2022-12-20T07:41:25;99372.28;;;8.79;100.00
15914;BME280;8055;51.930;8.840;2022-12-20T07:43:51;99365.69;;;8.73;100.00
15914;BME280;8055;51.930;8.840;2022-12-20T07:46:16;99362.97;;;8.73;100.00
15914;BME280;8055;51.930;8.840;2022-12-20T07:48:42;99365.19;;;8.70;100.00
15914;BME280;8055;51.930;8.840;2022-12-20T07:51:12;99366.38;;;8.67;100.00
15914;BME280;8055;51.930;8.840;2022-12-20T07:53:53;99358.09;;;8.69;100.00
15914;BME280;8055;51.930;8.840;2022-12-20T07:56:22;99353.53;;;8.69;100.00
15914;BME280;8055;51.930;8.840;2022-12-20T07:58:49;99354.53;;;8.68;100.00
15914;BME280;8055;51.930;8.840;2022-12-20T08:01:16;99356.03;;;8.79;100.00
15914;BME280;8055;51.930;8.840;2022-12-20T08:03:47;99358.06;;;8.77;100.00
15914;BME280;8055;51.930;8.840;2022-12-20T08:06:16;99362.06;;;8.89;100.00
15914;BME280;8055;51.930;8.840;2022-12-20T08:08:48;99364.91;;;8.96;100.00
15914;BME280;8055;51.930;8.840;2022-12-20T08:11:15;99368.66;;;8.95;100.00
15914;BME280;8055;51.930;8.840;2022-12-20T08:13:42;99363.78;;;8.90;100.00
15914;BME280;8055;51.930;8.840;2022-12-20T08:16:08;99357.00;;;8.86;100.00
15914;BME280;8055;51.930;8.840;2022-12-20T08:18:33;99361.06;;;8.90;100.00
15914;BME280;8055;51.930;8.840;2022-12-20T08:20:58;99356.16;;;8.94;100.00
15914;BME280;8055;51.930;8.840;2022-12-20T08:23:25;99358.19;;;8.92;100.00
15914;BME280;8055;51.930;8.840;2022-12-20T08:25:50;99362.25;;;8.88;100.00
15914;BME280;8055;51.930;8.840;2022-12-20T08:28:16;99347.22;;;8.77;100.00
15914;BME280;8055;51.930;8.840;2022-12-20T08:30:41;99334.56;;;8.69;100.00
15914;BME280;8055;51.930;8.840;2022-12-20T08:33:06;99328.31;;;8.61;100.00
15914;BME280;8055;51.930;8.840;2022-12-20T08:35:32;99342.06;;;8.51;100.00
15914;BME280;8055;51.930;8.840;2022-12-20T08:37:57;99349.19;;;8.44;100.00
15914;BME280;8055;51.930;8.840;2022-12-20T08:40:23;99335.31;;;8.47;100.00
15914;BME280;8055;51.930;8.840;2022-12-20T08:42:48;99334.91;;;8.66;100.00
15914;BME280;8055;51.930;8.840;2022-12-20T08:45:13;99329.47;;;8.74;100.00
15914;BME280;8055;51.930;8.840;2022-12-20T08:47:39;99330.94;;;8.93;100.00
15914;BME280;8055;51.930;8.840;2022-12-20T08:50:05;99317.69;;;8.98;100.00
15914;BME280;8055;51.930;8.840;2022-12-20T08:52:31;99312.53;;;9.12;100.00
15914;BME280;8055;51.930;8.840;2022-12-20T08:54:56;99311.34;;;9.14;100.00
15914;BME280;8055;51.930;8.840;2022-12-20T08:57:21;99305.69;;;9.24;100.00
15914;BME280;8055;51.930;8.840;2022-12-20T08:59:47;99310.75;;;9.27;100.00
15914;BME280;8055;51.930;8.840;2022-12-20T09:02:12;99308.19;;;9.34;100.00
15914;BME280;8055;51.930;8.840;2022-12-20T09:04:38;99307.47;;;9.40;100.00
15914;BME280;8055;51.930;8.840;2022-12-20T09:07:03;99306.59;;;9.47;100.00
15914;BME280;8055;51.930;8.840;2022-12-20T09:09:28;99312.78;;;9.56;100.00
15914;BME280;8055;51.930;8.840;2022-12-20T09:11:54;99312.56;;;9.66;100.00
15914;BME280;8055;51.930;8.840;2022-12-20T09:14:19;99335.44;;;9.86;100.00
15914;BME280;8055;51.930;8.840;2022-12-20T09:16:45;99321.59;;;9.81;100.00
15914;BME280;8055;51.930;8.840;2022-12-20T09:19:12;99315.56;;;9.94;100.00
15914;BME280;8055;51.930;8.840;2022-12-20T09:21:38;99324.16;;;9.98;100.00
15914;BME280;8055;51.930;8.840;2022-12-20T09:24:03;99312.75;;;10.02;100.00
15914;BME280;8055;51.930;8.840;2022-12-20T09:26:30;99299.50;;;10.07;100.00
15914;BME280;8055;51.930;8.840;2022-12-20T09:28:56;99306.16;;;10.19;100.00
15914;BME280;8055;51.930;8.840;2022-12-20T09:31:24;99301.88;;;10.25;100.00
15914;BME280;8055;51.930;8.840;2022-12-20T09:33:54;99310.97;;;10.32;100.00
15914;BME280;8055;51.930;8.840;2022-12-20T09:36:21;99304.03;;;10.30;100.00
15914;BME280;8055;51.930;8.840;2022-12-20T09:38:46;99291.97;;;10.32;100.00
15914;BME280;8055;51.930;8.840;2022-12-20T09:41:38;99296.97;;;10.20;100.00
15914;BME280;8055;51.930;8.840;2022-12-20T09:44:30;99286.03;;;10.14;100.00
15914;BME280;8055;51.930;8.840;2022-12-20T09:46:59;99295.19;;;10.13;100.00
15914;BME280;8055;51.930;8.840;2022-12-20T09:49:32;99278.53;;;10.01;100.00
15914;BME280;8055;51.930;8.840;2022-12-20T10:00:19;99266.34;;;9.97;100.00
15914;BME280;8055;51.930;8.840;2022-12-20T10:02:46;99278.09;;;10.12;100.00
15914;BME280;8055;51.930;8.840;2022-12-20T10:06:12;99274.69;;;10.10;100.00
15914;BME280;8055;51.930;8.840;2022-12-20T10:10:55;99266.03;;;10.30;100.00
15914;BME280;8055;51.930;8.840;2022-12-20T10:13:36;99273.22;;;10.23;100.00
15914;BME280;8055;51.930;8.840;2022-12-20T10:16:43;99276.97;;;10.22;100.00
15914;BME280;8055;51.930;8.840;2022-12-20T10:22:28;99289.78;;;10.13;100.00
15914;BME280;8055;51.930;8.840;2022-12-20T10:25:05;99278.09;;;10.12;100.00
15914;BME280;8055;51.930;8.840;2022-12-20T10:27:43;99286.13;;;10.20;100.00
15914;BME280;8055;51.930;8.840;2022-12-20T10:30:13;99281.06;;;10.17;100.00
15914;BME280;8055;51.930;8.840;2022-12-20T10:32:43;99271.69;;;10.28;100.00
15914;BME280;8055;51.930;8.840;2022-12-20T10:37:34;99282.19;;;10.23;100.00
15914;BME280;8055;51.930;8.840;2022-12-20T10:40:00;99275.28;;;10.20;100.00
15914;BME280;8055;51.930;8.840;2022-12-20T10:42:38;99260.50;;;10.23;100.00
15914;BME280;8055;51.930;8.840;2022-12-20T10:45:32;99253.75;;;10.19;100.00
15914;BME280;8055;51.930;8.840;2022-12-20T10:48:00;99255.44;;;10.20;100.00
15914;BME280;8055;51.930;8.840;2022-12-20T10:50:26;99246.47;;;10.19;100.00
15914;BME280;8055;51.930;8.840;2022-12-20T10:53:10;99244.34;;;10.30;100.00
15914;BME280;8055;51.930;8.840;2022-12-20T10:55:41;99238.16;;;10.36;100.00
15914;BME280;8055;51.930;8.840;2022-12-20T11:01:07;99247.88;;;10.30;100.00
15914;BME280;8055;51.930;8.840;2022-12-20T11:06:15;99236.56;;;10.27;100.00
15914;BME280;8055;51.930;8.840;2022-12-20T11:08:42;99230.38;;;10.33;100.00
15914;BME280;8055;51.930;8.840;2022-12-20T11:11:17;99232.28;;;10.47;100.00
15914;BME280;8055;51.930;8.840;2022-12-20T11:13:43;99226.00;;;10.47;100.00
15914;BME280;8055;51.930;8.840;2022-12-20T11:16:25;99231.44;;;10.47;100.00
15914;BME280;8055;51.930;8.840;2022-12-20T11:19:05;99238.34;;;10.49;100.00
15914;BME280;8055;51.930;8.840;2022-12-20T11:30:19;99218.03;;;10.60;100.00
15914;BME280;8055;51.930;8.840;2022-12-20T11:33:13;99208.47;;;10.64;100.00
15914;BME280;8055;51.930;8.840;2022-12-20T11:41:24;99187.94;;;10.76;100.00
15914;BME280;8055;51.930;8.840;2022-12-20T11:50:10;99181.19;;;10.72;100.00
15914;BME280;8055;51.930;8.840;2022-12-20T11:52:46;99186.88;;;10.77;100.00
15914;BME280;8055;51.930;8.840;2022-12-20T11:55:38;99165.16;;;10.77;100.00
15914;BME280;8055;51.930;8.840;2022-12-20T12:00:38;99171.03;;;10.81;100.00
15914;BME280;8055;51.930;8.840;2022-12-20T12:03:10;99165.59;;;10.81;100.00
15914;BME280;8055;51.930;8.840;2022-12-20T12:05:46;99161.22;;;10.80;100.00
15914;BME280;8055;51.930;8.840;2022-12-20T12:08:24;99156.81;;;10.79;100.00
15914;BME280;8055;51.930;8.840;2022-12-20T12:10:59;99154.94;;;10.79;100.00
15914;BME280;8055;51.930;8.840;2022-12-20T12:13:29;99146.03;;;10.85;100.00
15914;BME280;8055;51.930;8.840;2022-12-20T12:16:10;99145.75;;;10.80;100.00
15914;BME280;8055;51.930;8.840;2022-12-20T12:18:38;99143.63;;;10.76;100.00
15914;BME280;8055;51.930;8.840;2022-12-20T12:21:18;99121.44;;;10.72;100.00
15914;BME280;8055;51.930;8.840;2022-12-20T12:24:02;99120.59;;;10.72;100.00
15914;BME280;8055;51.930;8.840;2022-12-20T12:26:32;99128.34;;;10.75;100.00
15914;BME280;8055;51.930;8.840;2022-12-20T12:29:19;99114.78;;;10.75;100.00
15914;BME280;8055;51.930;8.840;2022-12-20T12:31:52;99125.84;;;10.73;100.00
15914;BME280;8055;51.930;8.840;2022-12-20T12:39:49;99127.50;;;10.74;100.00
15914;BME280;8055;51.930;8.840;2022-12-20T12:47:52;99126.34;;;10.83;100.00
15914;BME280;8055;51.930;8.840;2022-12-20T12:50:29;99117.38;;;10.83;100.00
15914;BME280;8055;51.930;8.840;2022-12-20T12:53:04;99113.94;;;10.74;100.00
15914;BME280;8055;51.930;8.840;2022-12-20T12:55:46;99116.41;;;10.69;100.00
15914;BME280;8055;51.930;8.840;2022-12-20T13:01:01;99110.91;;;10.62;100.00
15914;BME280;8055;51.930;8.840;2022-12-20T13:03:45;99107.72;;;10.59;100.00
15914;BME280;8055;51.930;8.840;2022-12-20T13:11:39;99114.25;;;10.64;100.00
15914;BME280;8055;51.930;8.840;2022-12-20T13:19:35;99097.72;;;10.59;100.00
15914;BME280;8055;51.930;8.840;2022-12-20T13:38:03;99103.31;;;10.58;100.00
15914;BME280;8055;51.930;8.840;2022-12-20T13:40:47;99107.91;;;10.57;100.00
15914;BME280;8055;51.930;8.840;2022-12-20T13:45:52;99098.34;;;10.61;100.00
15914;BME280;8055;51.930;8.840;2022-12-20T13:48:25;99103.31;;;10.58;100.00
15914;BME280;8055;51.930;8.840;2022-12-20T13:50:55;99122.16;;;10.59;100.00
15914;BME280;8055;51.930;8.840;2022-12-20T13:53:23;99107.06;;;10.57;100.00
15914;BME280;8055;51.930;8.840;2022-12-20T13:55:49;99110.56;;;10.51;100.00
15914;BME280;8055;51.930;8.840;2022-12-20T13:58:18;99112.22;;;10.52;100.00
15914;BME280;8055;51.930;8.840;2022-12-20T14:00:44;99118.78;;;10.57;100.00
15914;BME280;8055;51.930;8.840;2022-12-20T14:03:25;99112.44;;;10.50;100.00
15914;BME280;8055;51.930;8.840;2022-12-20T14:06:01;99113.44;;;10.49;100.00
15914;BME280;8055;51.930;8.840;2022-12-20T14:08:32;99108.22;;;10.48;100.00
15914;BME280;8055;51.930;8.840;2022-12-20T14:11:19;99113.25;;;10.65;100.00
15914;BME280;8055;51.930;8.840;2022-12-20T14:13:53;99112.56;;;10.63;100.00
15914;BME280;8055;51.930;8.840;2022-12-20T14:16:20;99110.03;;;10.62;100.00
15914;BME280;8055;51.930;8.840;2022-12-20T14:19:05;99107.25;;;10.55;100.00
15914;BME280;8055;51.930;8.840;2022-12-20T14:21:34;99113.72;;;10.54;100.00
15914;BME280;8055;51.930;8.840;2022-12-20T14:24:01;99116.44;;;10.54;100.00
15914;BME280;8055;51.930;8.840;2022-12-20T14:26:29;99117.28;;;10.55;100.00
15914;BME280;8055;51.930;8.840;2022-12-20T14:28:58;99114.19;;;10.58;100.00
15914;BME280;8055;51.930;8.840;2022-12-20T14:31:27;99113.06;;;10.52;100.00
15914;BME280;8055;51.930;8.840;2022-12-20T14:36:38;99109.97;;;10.55;100.00
15914;BME280;8055;51.930;8.840;2022-12-20T14:39:24;99103.25;;;10.51;100.00
15914;BME280;8055;51.930;8.840;2022-12-20T14:44:34;99093.44;;;10.50;100.00
15914;BME280;8055;51.930;8.840;2022-12-20T14:47:03;99089.47;;;10.53;100.00
15914;BME280;8055;51.930;8.840;2022-12-20T14:49:34;99086.50;;;10.48;100.00
15914;BME280;8055;51.930;8.840;2022-12-20T14:54:48;99081.47;;;10.45;100.00
15914;BME280;8055;51.930;8.840;2022-12-20T14:57:43;99083.41;;;10.51;100.00
15914;BME280;8055;51.930;8.840;2022-12-20T15:00:18;99096.16;;;10.50;100.00
15914;BME280;8055;51.930;8.840;2022-12-20T15:03:17;99077.28;;;10.63;100.00
15914;BME280;8055;51.930;8.840;2022-12-20T15:05:45;99095.56;;;10.55;100.00
15914;BME280;8055;51.930;8.840;2022-12-20T15:10:48;99082.63;;;10.57;100.00
15914;BME280;8055;51.930;8.840;2022-12-20T15:13:15;99085.06;;;10.52;100.00
15914;BME280;8055;51.930;8.840;2022-12-20T15:15:42;99089.97;;;10.41;100.00
15914;BME280;8055;51.930;8.840;2022-12-20T15:18:12;99094.56;;;10.41;100.00